Time;durP1;ratioP1;P1;durP2;ratioP2;P2;SDS_P1;SDS_P2;PMS_P1;PMS_P2;Temp;Humidity;BMP_temperature;BMP_pressure;BME280_temperature;BME280_humidity;BME280_pressure;Samples;Min_cycle;Max_cycle;Signal;HPM_P1;HPM_P2
2020/12/26 00:01:13;;;;;;;29.38;11.85;;;;;;;;;;5052364;28;20021;-77
2020/12/26 00:03:39;;;;;;;19.13;9.15;;;;;;;;;;5053442;28;20024;-76
2020/12/26 00:06:06;;;;;;;19.27;9.80;;;;;;;;;;5053658;28;20063;-76
2020/12/26 00:08:35;;;;;;;23.23;12.32;;;;;;;;;;5053310;28;20100;-75
2020/12/26 00:11:01;;;;;;;23.77;11.13;;;;;;;;;;5053169;28;20028;-75
2020/12/26 00:13:27;;;;;;;21.98;9.77;;;;;;;;;;5051976;28;20053;-76
2020/12/26 00:15:53;;;;;;;20.63;10.23;;;;;;;;;;5051993;28;20060;-76
2020/12/26 00:18:19;;;;;;;18.02;9.07;;;;;;;;;;5052787;28;20410;-75
2020/12/26 00:20:46;;;;;;;26.00;11.77;;;;;;;;;;5051903;28;20099;-76
2020/12/26 00:23:11;;;;;;;36.05;14.32;;;;;;;;;;5053344;28;20017;-77
2020/12/26 00:25:37;;;;;;;25.85;12.27;;;;;;;;;;5051673;28;20476;-76
2020/12/26 00:28:05;;;;;;;18.48;10.30;;;;;;;;;;5051716;28;20032;-76
2020/12/26 00:30:31;;;;;;;18.98;9.00;;;;;;;;;;5051101;28;20035;-77
2020/12/26 00:32:57;;;;;;;21.00;9.50;;;;;;;;;;5051881;28;20047;-77
2020/12/26 00:35:23;;;;;;;21.17;9.20;;;;;;;;;;5051441;28;20045;-77
2020/12/26 00:37:49;;;;;;;24.00;10.48;;;;;;;;;;5051660;28;20497;-75
2020/12/26 00:40:15;;;;;;;21.33;9.23;;;;;;;;;;5051546;28;20020;-75
2020/12/26 00:42:41;;;;;;;16.90;9.23;;;;;;;;;;5051358;28;20048;-75
2020/12/26 00:45:07;;;;;;;30.40;12.65;;;;;;;;;;5051577;28;20518;-75
2020/12/26 00:47:33;;;;;;;29.58;12.35;;;;;;;;;;5051209;28;20024;-75
2020/12/26 00:49:59;;;;;;;31.17;13.70;;;;;;;;;;5052406;28;20028;-76
2020/12/26 00:52:25;;;;;;;26.67;11.48;;;;;;;;;;5051218;28;20028;-76
2020/12/26 00:54:52;;;;;;;32.22;12.65;;;;;;;;;;5051546;28;20096;-76
2020/12/26 00:57:18;;;;;;;26.73;10.38;;;;;;;;;;5051336;28;20021;-76
2020/12/26 00:59:43;;;;;;;23.13;10.30;;;;;;;;;;5052699;28;20507;-76
2020/12/26 01:02:09;;;;;;;29.10;11.82;;;;;;;;;;5051285;28;20021;-76
2020/12/26 01:04:35;;;;;;;19.25;9.25;;;;;;;;;;5052145;28;20017;-75
2020/12/26 01:07:01;;;;;;;23.17;9.45;;;;;;;;;;5051173;28;20017;-77
2020/12/26 01:09:27;;;;;;;18.52;9.52;;;;;;;;;;5050926;28;20115;-77
2020/12/26 01:11:53;;;;;;;18.75;8.88;;;;;;;;;;5051132;28;20116;-76
2020/12/26 01:14:20;;;;;;;21.75;10.43;;;;;;;;;;5050928;28;20024;-76
2020/12/26 01:16:50;;;;;;;27.20;10.00;;;;;;;;;;5052185;28;20040;-76
2020/12/26 01:19:16;;;;;;;18.30;9.38;;;;;;;;;;5051089;28;20024;-76
2020/12/26 01:21:42;;;;;;;23.17;9.50;;;;;;;;;;5050647;28;20036;-77
2020/12/26 01:24:08;;;;;;;41.72;15.80;;;;;;;;;;5051176;28;20148;-76
2020/12/26 01:26:34;;;;;;;32.88;13.18;;;;;;;;;;5052397;28;20044;-76
2020/12/26 01:29:00;;;;;;;19.85;10.02;;;;;;;;;;5052551;28;20059;-76
2020/12/26 01:31:27;;;;;;;28.85;11.38;;;;;;;;;;5050430;28;20060;-76
2020/12/26 01:33:53;;;;;;;21.85;10.23;;;;;;;;;;5056479;28;20021;-76
2020/12/26 01:36:19;;;;;;;21.52;10.93;;;;;;;;;;5058584;28;20043;-77
2020/12/26 01:38:45;;;;;;;40.85;17.92;;;;;;;;;;5057332;28;20017;-76
2020/12/26 01:41:11;;;;;;;22.98;10.57;;;;;;;;;;5057431;28;20021;-77
2020/12/26 01:43:37;;;;;;;24.30;11.07;;;;;;;;;;5057275;28;20017;-77
2020/12/26 01:46:04;;;;;;;24.17;12.25;;;;;;;;;;5057491;28;20021;-77
2020/12/26 01:48:30;;;;;;;18.63;9.30;;;;;;;;;;5058514;28;20013;-77
2020/12/26 01:50:56;;;;;;;31.42;13.93;;;;;;;;;;5057335;28;20040;-77
2020/12/26 01:53:22;;;;;;;28.27;12.75;;;;;;;;;;5058731;28;20013;-77
2020/12/26 01:55:48;;;;;;;33.50;15.25;;;;;;;;;;5057213;28;20021;-77
2020/12/26 01:58:15;;;;;;;26.02;12.10;;;;;;;;;;5057379;28;20017;-77
2020/12/26 02:00:41;;;;;;;18.95;10.05;;;;;;;;;;5058440;28;20021;-77
2020/12/26 02:03:08;;;;;;;22.67;10.98;;;;;;;;;;5058663;28;20502;-76
2020/12/26 02:05:34;;;;;;;18.77;10.07;;;;;;;;;;5058175;28;20016;-77
2020/12/26 02:08:00;;;;;;;22.67;11.95;;;;;;;;;;5057205;28;20063;-76
2020/12/26 02:10:26;;;;;;;26.80;14.35;;;;;;;;;;5056741;28;20036;-77
2020/12/26 02:12:52;;;;;;;34.55;16.70;;;;;;;;;;5057285;28;20020;-76
2020/12/26 02:15:18;;;;;;;31.13;12.23;;;;;;;;;;5057136;28;20017;-76
2020/12/26 02:17:44;;;;;;;27.75;12.35;;;;;;;;;;5056982;28;20075;-76
2020/12/26 02:20:10;;;;;;;21.60;9.93;;;;;;;;;;5057216;28;20021;-76
2020/12/26 02:22:36;;;;;;;23.33;9.82;;;;;;;;;;5056983;28;20472;-76
2020/12/26 02:25:02;;;;;;;25.95;10.80;;;;;;;;;;5058772;28;20024;-76
2020/12/26 02:27:28;;;;;;;21.35;10.40;;;;;;;;;;5056700;28;20013;-76
2020/12/26 02:29:54;;;;;;;22.10;10.57;;;;;;;;;;5058311;28;20067;-76
2020/12/26 02:32:20;;;;;;;22.75;10.73;;;;;;;;;;5056690;28;20044;-77
2020/12/26 02:34:46;;;;;;;32.00;14.88;;;;;;;;;;5057886;28;20044;-77
2020/12/26 02:37:12;;;;;;;50.15;21.63;;;;;;;;;;5057044;28;20111;-77
2020/12/26 02:39:38;;;;;;;36.08;15.43;;;;;;;;;;5058373;28;20056;-76
2020/12/26 02:42:04;;;;;;;44.97;18.52;;;;;;;;;;5057050;28;20056;-77
2020/12/26 02:44:30;;;;;;;19.65;11.40;;;;;;;;;;5053876;28;20497;-77
2020/12/26 02:46:56;;;;;;;19.85;10.15;;;;;;;;;;5054894;28;20401;-77
2020/12/26 02:49:22;;;;;;;20.70;10.05;;;;;;;;;;5053730;28;20027;-77
2020/12/26 02:51:48;;;;;;;17.05;10.13;;;;;;;;;;5053532;28;20055;-77
2020/12/26 02:54:14;;;;;;;18.27;9.82;;;;;;;;;;5053709;28;20020;-76
2020/12/26 02:56:40;;;;;;;18.35;11.30;;;;;;;;;;5053419;28;20017;-76
2020/12/26 02:59:09;;;;;;;21.33;11.55;;;;;;;;;;5053582;28;20028;-77
2020/12/26 03:01:40;;;;;;;17.17;10.70;;;;;;;;;;5053297;28;20021;-76
2020/12/26 03:04:05;;;;;;;;;;;;;;;;;;5054888;28;20023;-77
2020/12/26 03:06:31;;;;;;;14.93;10.55;;;;;;;;;;5053128;28;19900;-75
2020/12/26 03:08:57;;;;;;;21.85;12.38;;;;;;;;;;5054300;28;20047;-77
2020/12/26 03:11:23;;;;;;;22.33;10.90;;;;;;;;;;5053308;28;20565;-77
2020/12/26 03:13:50;;;;;;;16.27;11.48;;;;;;;;;;5054531;28;20082;-77
2020/12/26 03:16:16;;;;;;;15.25;10.10;;;;;;;;;;5054483;28;20017;-77
2020/12/26 03:18:42;;;;;;;19.63;9.98;;;;;;;;;;5054053;28;20488;-77
2020/12/26 03:21:09;;;;;;;17.95;10.20;;;;;;;;;;5053109;28;20343;-76
2020/12/26 03:23:35;;;;;;;24.38;11.40;;;;;;;;;;5052974;28;20021;-77
2020/12/26 03:26:01;;;;;;;13.25;9.73;;;;;;;;;;5053102;28;20055;-76
2020/12/26 03:28:27;;;;;;;18.40;10.75;;;;;;;;;;5052715;28;20446;-76
2020/12/26 03:30:53;;;;;;;22.10;10.80;;;;;;;;;;5052405;28;20087;-76
2020/12/26 03:33:19;;;;;;;16.02;11.27;;;;;;;;;;5052828;28;20033;-76
2020/12/26 03:35:45;;;;;;;19.60;13.07;;;;;;;;;;5052366;28;20437;-76
2020/12/26 03:38:11;;;;;;;18.00;11.55;;;;;;;;;;5054369;28;20495;-76
2020/12/26 03:40:37;;;;;;;23.88;12.07;;;;;;;;;;5052614;28;20147;-76
2020/12/26 03:43:03;;;;;;;19.42;12.07;;;;;;;;;;5052736;28;20017;-76
2020/12/26 03:45:29;;;;;;;17.08;11.55;;;;;;;;;;5052672;28;20036;-76
2020/12/26 03:47:55;;;;;;;21.30;12.35;;;;;;;;;;5054117;28;20020;-76
2020/12/26 03:50:21;;;;;;;20.50;11.88;;;;;;;;;;5052525;28;20532;-76
2020/12/26 03:52:47;;;;;;;20.70;11.80;;;;;;;;;;5053755;28;20044;-76
2020/12/26 03:55:13;;;;;;;19.33;11.35;;;;;;;;;;5052159;28;20024;-76
2020/12/26 03:57:39;;;;;;;21.27;12.00;;;;;;;;;;5053293;28;20024;-76
2020/12/26 04:00:06;;;;;;;17.23;10.13;;;;;;;;;;5052444;28;20024;-76
2020/12/26 04:02:32;;;;;;;16.73;10.30;;;;;;;;;;5052181;28;20017;-76
2020/12/26 04:04:58;;;;;;;19.48;11.98;;;;;;;;;;5052129;28;20047;-76
2020/12/26 04:07:24;;;;;;;20.08;12.48;;;;;;;;;;5052204;28;20671;-76
2020/12/26 04:09:50;;;;;;;19.50;10.07;;;;;;;;;;5051872;28;20025;-75
2020/12/26 04:12:16;;;;;;;21.02;11.48;;;;;;;;;;5053572;28;20021;-75
2020/12/26 04:14:42;;;;;;;18.50;11.35;;;;;;;;;;5051961;28;20028;-75
2020/12/26 04:17:08;;;;;;;25.05;12.52;;;;;;;;;;5052161;28;20060;-75
2020/12/26 04:19:34;;;;;;;18.38;10.32;;;;;;;;;;5053096;28;20036;-74
2020/12/26 04:22:00;;;;;;;17.30;10.27;;;;;;;;;;5051690;28;20013;-74
2020/12/26 04:24:26;;;;;;;15.93;9.13;;;;;;;;;;5052057;28;20013;-75
2020/12/26 04:26:53;;;;;;;19.77;11.02;;;;;;;;;;5051588;28;20074;-74
2020/12/26 04:29:21;;;;;;;27.25;12.52;;;;;;;;;;5051780;28;20031;-74
2020/12/26 04:31:47;;;;;;;23.85;11.07;;;;;;;;;;5052902;28;20129;-74
2020/12/26 04:34:13;;;;;;;16.25;9.35;;;;;;;;;;5051688;28;20072;-77
2020/12/26 04:36:39;;;;;;;21.02;11.25;;;;;;;;;;5051201;28;20461;-77
2020/12/26 04:39:05;;;;;;;16.92;8.70;;;;;;;;;;5051690;28;20021;-77
2020/12/26 04:41:32;;;;;;;18.80;9.50;;;;;;;;;;5051633;28;20044;-77
2020/12/26 04:43:58;;;;;;;47.33;19.25;;;;;;;;;;5051362;28;20441;-77
2020/12/26 04:46:26;;;;;;;25.52;12.35;;;;;;;;;;5051554;28;20074;-77
2020/12/26 04:49:03;;;;;;;21.65;10.45;;;;;;;;;;5051341;28;20369;-78
2020/12/26 04:51:32;;;;;;;22.75;10.52;;;;;;;;;;5051351;28;20090;-77
2020/12/26 04:54:00;;;;;;;20.58;10.25;;;;;;;;;;5051211;28;20021;-77
2020/12/26 04:56:33;;;;;;;22.00;9.38;;;;;;;;;;5052660;28;20021;-76
2020/12/26 04:59:00;;;;;;;18.23;8.15;;;;;;;;;;5052286;28;20013;-76
2020/12/26 05:01:27;;;;;;;16.33;9.50;;;;;;;;;;5050925;28;20032;-76
2020/12/26 05:03:55;;;;;;;17.20;9.55;;;;;;;;;;5050950;28;20389;-76
2020/12/26 05:06:24;;;;;;;18.35;7.85;;;;;;;;;;5051154;28;20017;-76
2020/12/26 05:08:50;;;;;;;14.00;8.88;;;;;;;;;;5050233;28;20020;-77
2020/12/26 05:11:16;;;;;;;16.40;8.15;;;;;;;;;;5052356;28;20074;-77
2020/12/26 05:13:43;;;;;;;22.83;9.93;;;;;;;;;;5052439;28;20052;-77
2020/12/26 05:16:10;;;;;;;14.63;7.88;;;;;;;;;;5071048;28;20021;-77
2020/12/26 05:18:39;;;;;;;17.63;8.25;;;;;;;;;;5071124;28;20071;-77
2020/12/26 05:21:05;;;;;;;13.70;8.02;;;;;;;;;;5070989;28;20043;-77
2020/12/26 05:23:31;;;;;;;13.00;7.15;;;;;;;;;;5072103;28;20061;-77
2020/12/26 05:25:57;;;;;;;10.63;6.45;;;;;;;;;;5072133;28;20039;-76
2020/12/26 05:28:31;;;;;;;16.25;7.53;;;;;;;;;;5072002;28;20044;-76
2020/12/26 05:30:57;;;;;;;15.88;7.78;;;;;;;;;;5070417;28;20056;-76
2020/12/26 05:33:23;;;;;;;17.83;8.23;;;;;;;;;;5072255;28;20012;-76
2020/12/26 05:35:51;;;;;;;14.15;7.40;;;;;;;;;;5070639;28;20345;-76
2020/12/26 05:38:18;;;;;;;16.25;7.82;;;;;;;;;;5072284;28;20016;-76
2020/12/26 05:40:45;;;;;;;15.27;7.57;;;;;;;;;;5070599;28;20028;-76
2020/12/26 05:43:12;;;;;;;14.23;6.80;;;;;;;;;;5072325;28;20020;-76
2020/12/26 05:45:42;;;;;;;15.10;7.63;;;;;;;;;;5070802;28;20361;-76
2020/12/26 05:48:08;;;;;;;;;;;;;;;;;;5072503;28;20017;-75
2020/12/26 05:50:34;;;;;;;12.77;8.43;;;;;;;;;;5070644;28;19959;-77
2020/12/26 05:53:02;;;;;;;18.75;7.47;;;;;;;;;;5070442;28;20021;-77
2020/12/26 05:55:36;;;;;;;13.32;6.93;;;;;;;;;;5070786;28;20024;-76
2020/12/26 05:58:02;;;;;;;12.73;8.80;;;;;;;;;;5071852;28;20017;-76
2020/12/26 06:00:35;;;;;;;13.73;7.53;;;;;;;;;;5072044;28;20032;-76
2020/12/26 06:03:19;;;;;;;14.20;8.40;;;;;;;;;;5070558;28;20025;-77
2020/12/26 06:05:47;;;;;;;14.30;7.80;;;;;;;;;;5070691;28;20024;-77
2020/12/26 06:08:14;;;;;;;14.90;8.00;;;;;;;;;;5071656;28;20483;-77
2020/12/26 06:10:41;;;;;;;12.90;8.38;;;;;;;;;;5070289;28;20032;-77
2020/12/26 06:13:08;;;;;;;12.93;8.05;;;;;;;;;;5070619;28;20031;-75
2020/12/26 06:15:35;;;;;;;16.90;9.35;;;;;;;;;;5054603;28;20476;-74
2020/12/26 06:18:04;;;;;;;13.30;7.97;;;;;;;;;;5051779;28;20079;-77
2020/12/26 06:20:30;;;;;;;13.07;7.85;;;;;;;;;;5054197;28;20453;-77
2020/12/26 06:22:56;;;;;;;18.00;8.60;;;;;;;;;;5054071;28;20115;-77
2020/12/26 06:25:23;;;;;;;18.67;7.88;;;;;;;;;;5054400;28;20048;-77
2020/12/26 06:27:52;;;;;;;17.02;10.07;;;;;;;;;;5055216;28;20024;-76
2020/12/26 06:30:18;;;;;;;12.70;7.90;;;;;;;;;;5054006;28;20365;-77
2020/12/26 06:32:45;;;;;;;18.15;8.95;;;;;;;;;;5053680;28;20474;-74
2020/12/26 06:35:13;;;;;;;17.77;9.27;;;;;;;;;;5054137;28;20449;-75
2020/12/26 06:37:39;;;;;;;17.13;10.18;;;;;;;;;;5053977;28;20111;-77
2020/12/26 06:40:23;;;;;;;15.40;8.52;;;;;;;;;;5055087;28;20075;-77
2020/12/26 06:42:49;;;;;;;19.13;9.95;;;;;;;;;;5054657;28;20422;-76
2020/12/26 06:45:30;;;;;;;14.23;8.90;;;;;;;;;;5053855;28;20412;-76
2020/12/26 06:47:57;;;;;;;16.33;10.02;;;;;;;;;;5053651;28;20110;-76
2020/12/26 06:50:23;;;;;;;24.25;11.82;;;;;;;;;;5054993;28;20024;-76
2020/12/26 06:52:50;;;;;;;20.08;12.18;;;;;;;;;;5054833;28;20070;-76
2020/12/26 06:55:36;;;;;;;15.93;9.95;;;;;;;;;;5053653;28;20013;-76
2020/12/26 06:58:02;;;;;;;19.85;10.85;;;;;;;;;;5053358;28;20078;-76
2020/12/26 07:00:29;;;;;;;19.25;12.10;;;;;;;;;;5053558;28;20028;-76
2020/12/26 07:03:13;;;;;;;19.52;12.02;;;;;;;;;;5054621;28;20048;-76
2020/12/26 07:05:39;;;;;;;21.17;13.15;;;;;;;;;;5054784;28;20029;-75
2020/12/26 07:08:06;;;;;;;21.45;12.55;;;;;;;;;;5054513;28;20024;-75
2020/12/26 07:10:35;;;;;;;23.02;11.35;;;;;;;;;;5054760;28;20119;-76
2020/12/26 07:13:01;;;;;;;17.58;12.20;;;;;;;;;;5053148;28;20025;-75
2020/12/26 07:15:33;;;;;;;21.42;13.20;;;;;;;;;;5053078;28;20100;-75
2020/12/26 07:18:18;;;;;;;18.02;12.48;;;;;;;;;;5054251;28;20025;-75
2020/12/26 07:20:51;;;;;;;21.33;12.82;;;;;;;;;;5052875;28;20025;-76
2020/12/26 07:23:17;;;;;;;22.10;13.65;;;;;;;;;;5054793;28;20052;-76
2020/12/26 07:25:43;;;;;;;22.15;13.85;;;;;;;;;;5054167;28;20025;-77
2020/12/26 07:28:13;;;;;;;19.05;14.05;;;;;;;;;;5053085;28;20056;-77
2020/12/26 07:30:39;;;;;;;24.23;14.18;;;;;;;;;;5051957;28;20107;-77
2020/12/26 07:33:05;;;;;;;25.60;15.13;;;;;;;;;;5052806;28;20025;-77
2020/12/26 07:35:32;;;;;;;22.73;15.43;;;;;;;;;;5052860;28;20492;-78
2020/12/26 07:38:12;;;;;;;22.38;14.45;;;;;;;;;;5054142;28;20495;-78
2020/12/26 07:40:39;;;;;;;26.23;14.43;;;;;;;;;;5052948;28;20025;-76
2020/12/26 07:43:08;;;;;;;19.48;14.45;;;;;;;;;;5052558;28;20377;-78
2020/12/26 07:45:34;;;;;;;25.20;16.07;;;;;;;;;;5052708;28;20031;-78
2020/12/26 07:48:01;;;;;;;21.40;14.10;;;;;;;;;;5052473;28;20032;-79
2020/12/26 07:50:32;;;;;;;23.33;16.27;;;;;;;;;;5052553;28;20031;-76
2020/12/26 07:52:59;;;;;;;24.88;15.45;;;;;;;;;;5053729;28;20078;-76
2020/12/26 07:55:29;;;;;;;27.40;17.23;;;;;;;;;;5052534;28;20028;-76
2020/12/26 07:58:14;;;;;;;23.30;15.40;;;;;;;;;;5052259;28;20029;-76
2020/12/26 08:00:41;;;;;;;24.95;15.32;;;;;;;;;;5053825;28;20032;-76
2020/12/26 08:03:08;;;;;;;20.65;14.05;;;;;;;;;;5052185;28;20364;-75
2020/12/26 08:05:35;;;;;;;27.23;14.52;;;;;;;;;;5052351;28;20009;-75
2020/12/26 08:08:12;;;;;;;21.33;14.15;;;;;;;;;;5053307;28;20013;-75
2020/12/26 08:10:38;;;;;;;22.75;14.23;;;;;;;;;;5052290;28;20029;-75
2020/12/26 08:13:04;;;;;;;22.02;14.68;;;;;;;;;;5051945;28;20024;-75
2020/12/26 08:15:30;;;;;;;20.95;13.32;;;;;;;;;;5053606;28;20028;-75
2020/12/26 08:17:58;;;;;;;21.92;12.30;;;;;;;;;;5051893;28;20633;-75
2020/12/26 08:20:26;;;;;;;22.13;13.25;;;;;;;;;;5052086;28;20024;-75
2020/12/26 08:22:52;;;;;;;18.80;13.35;;;;;;;;;;5053200;28;20017;-75
2020/12/26 08:25:19;;;;;;;21.50;13.98;;;;;;;;;;5051978;28;20091;-74
2020/12/26 08:27:45;;;;;;;24.98;13.00;;;;;;;;;;5051913;28;20021;-75
2020/12/26 08:30:13;;;;;;;17.65;12.05;;;;;;;;;;5051493;28;20017;-75
2020/12/26 08:32:58;;;;;;;18.63;12.52;;;;;;;;;;5051602;28;20128;-74
2020/12/26 08:35:25;;;;;;;22.73;11.23;;;;;;;;;;5052947;28;20027;-75
2020/12/26 08:37:56;;;;;;;18.92;12.43;;;;;;;;;;5052745;28;20017;-75
2020/12/26 08:40:22;;;;;;;18.45;10.60;;;;;;;;;;5051695;28;20117;-75
2020/12/26 08:42:48;;;;;;;16.90;10.10;;;;;;;;;;5051835;28;20024;-77
2020/12/26 08:45:31;;;;;;;19.95;10.00;;;;;;;;;;5053245;28;20028;-76
2020/12/26 08:48:12;;;;;;;17.70;9.35;;;;;;;;;;5060710;28;20048;-76
2020/12/26 08:50:42;;;;;;;17.15;9.38;;;;;;;;;;5060911;28;20053;-76
2020/12/26 08:53:10;;;;;;;13.57;9.40;;;;;;;;;;5059572;28;20025;-76
2020/12/26 08:55:46;;;;;;;21.35;10.23;;;;;;;;;;5059696;28;20021;-76
2020/12/26 08:58:21;;;;;;;16.17;9.48;;;;;;;;;;5058970;28;20020;-76
2020/12/26 09:00:48;;;;;;;15.77;9.52;;;;;;;;;;5063229;28;20021;-77
2020/12/26 09:03:22;;;;;;;16.42;8.82;;;;;;;;;;5061434;28;20070;-76
2020/12/26 09:05:48;;;;;;;21.27;9.77;;;;;;;;;;5060782;28;20052;-76
2020/12/26 09:08:14;;;;;;;13.07;8.18;;;;;;;;;;5060292;28;20017;-78
2020/12/26 09:10:41;;;;;;;15.77;8.38;;;;;;;;;;5064304;28;20052;-76
2020/12/26 09:13:12;;;;;;;16.83;9.35;;;;;;;;;;5061470;28;20573;-76
2020/12/26 09:15:50;;;;;;;16.92;7.63;;;;;;;;;;5058308;28;20473;-77
2020/12/26 09:18:17;;;;;;;19.90;8.65;;;;;;;;;;5053557;28;20029;-77
2020/12/26 09:20:53;;;;;;;14.88;7.10;;;;;;;;;;5051070;28;20099;-77
2020/12/26 09:23:20;;;;;;;13.55;6.18;;;;;;;;;;5052431;28;20457;-77
2020/12/26 09:25:46;;;;;;;20.05;8.95;;;;;;;;;;5051109;28;20403;-79
2020/12/26 09:28:12;;;;;;;14.95;7.00;;;;;;;;;;5050779;28;20123;-78
2020/12/26 09:30:38;;;;;;;11.25;5.35;;;;;;;;;;5050420;28;20029;-78
2020/12/26 09:33:04;;;;;;;13.20;5.97;;;;;;;;;;5050764;28;20357;-78
2020/12/26 09:35:30;;;;;;;13.48;6.03;;;;;;;;;;5050896;28;20025;-78
2020/12/26 09:37:57;;;;;;;19.35;6.68;;;;;;;;;;5052301;28;20057;-79
2020/12/26 09:40:29;;;;;;;11.00;5.32;;;;;;;;;;5052223;28;20021;-77
2020/12/26 09:42:55;;;;;;;9.82;5.75;;;;;;;;;;5050696;28;20028;-78
2020/12/26 09:45:22;;;;;;;14.07;6.05;;;;;;;;;;5050936;28;20071;-79
2020/12/26 09:47:48;;;;;;;11.05;6.20;;;;;;;;;;5050857;28;20021;-78
2020/12/26 09:50:14;;;;;;;11.20;5.22;;;;;;;;;;5051806;28;20032;-78
2020/12/26 09:52:42;;;;;;;10.45;5.72;;;;;;;;;;5050225;28;20033;-77
2020/12/26 09:55:08;;;;;;;13.98;6.50;;;;;;;;;;5053440;28;20116;-78
2020/12/26 09:57:34;;;;;;;14.25;6.32;;;;;;;;;;5054969;28;20017;-77
2020/12/26 10:00:00;;;;;;;12.43;4.90;;;;;;;;;;5054292;28;20025;-78
2020/12/26 10:02:26;;;;;;;13.57;4.90;;;;;;;;;;5069246;28;20028;-78
2020/12/26 10:04:52;;;;;;;9.52;4.07;;;;;;;;;;5064422;28;20017;-77
2020/12/26 10:07:19;;;;;;;11.02;5.03;;;;;;;;;;5054035;28;20453;-78
2020/12/26 10:09:45;;;;;;;10.23;4.43;;;;;;;;;;5054035;28;20023;-78
2020/12/26 10:12:12;;;;;;;8.38;3.55;;;;;;;;;;5054090;28;20540;-78
2020/12/26 10:14:38;;;;;;;9.15;3.83;;;;;;;;;;5062354;28;20121;-78
2020/12/26 10:17:04;;;;;;;9.10;4.53;;;;;;;;;;5074093;28;20158;-78
2020/12/26 10:19:30;;;;;;;8.52;4.43;;;;;;;;;;5074345;28;20025;-78
2020/12/26 10:21:56;;;;;;;10.40;3.80;;;;;;;;;;5075420;28;20017;-78
2020/12/26 10:24:22;;;;;;;8.27;4.40;;;;;;;;;;5074193;28;20047;-78
2020/12/26 10:26:48;;;;;;;9.02;4.43;;;;;;;;;;5074230;28;20017;-77
2020/12/26 10:29:14;;;;;;;14.45;4.60;;;;;;;;;;5075255;28;20012;-78
2020/12/26 10:31:40;;;;;;;9.82;4.15;;;;;;;;;;5073747;28;20047;-78
2020/12/26 10:34:06;;;;;;;9.65;5.10;;;;;;;;;;5073773;28;20373;-78
2020/12/26 10:36:32;;;;;;;8.93;4.43;;;;;;;;;;5075387;28;20051;-78
2020/12/26 10:38:58;;;;;;;11.35;3.92;;;;;;;;;;5075089;28;20059;-78
2020/12/26 10:41:24;;;;;;;6.88;4.28;;;;;;;;;;5073656;28;20459;-77
2020/12/26 10:43:50;;;;;;;8.52;4.20;;;;;;;;;;5073976;28;20075;-77
2020/12/26 10:46:16;;;;;;;8.90;4.40;;;;;;;;;;5073739;28;20023;-78
2020/12/26 10:48:42;;;;;;;11.85;4.88;;;;;;;;;;5074851;28;20096;-78
2020/12/26 10:51:10;;;;;;;14.60;7.50;;;;;;;;;;5073500;28;20111;-78
2020/12/26 10:53:36;;;;;;;8.77;4.15;;;;;;;;;;5073750;28;20021;-77
2020/12/26 10:56:02;;;;;;;6.95;4.20;;;;;;;;;;5073322;28;20012;-78
2020/12/26 10:58:28;;;;;;;10.20;4.15;;;;;;;;;;5064400;28;20029;-76
2020/12/26 11:00:54;;;;;;;9.10;4.43;;;;;;;;;;5063301;28;20009;-82
2020/12/26 11:03:20;;;;;;;9.95;4.75;;;;;;;;;;5061945;28;20405;-84
2020/12/26 11:05:49;;;;;;;9.25;4.70;;;;;;;;;;5062322;28;20025;-79
2020/12/26 11:08:15;;;;;;;13.35;4.50;;;;;;;;;;5063139;28;20083;-78
2020/12/26 11:10:41;;;;;;;17.50;4.75;;;;;;;;;;5072619;28;20027;-79
2020/12/26 11:13:07;;;;;;;12.30;5.40;;;;;;;;;;5072404;28;20115;-78
2020/12/26 11:15:33;;;;;;;12.10;5.53;;;;;;;;;;5056701;28;20040;-79
2020/12/26 11:18:00;;;;;;;8.00;3.70;;;;;;;;;;5055411;28;20490;-78
2020/12/26 11:20:26;;;;;;;9.55;3.47;;;;;;;;;;5063239;28;20410;-78
2020/12/26 11:22:52;;;;;;;9.13;3.97;;;;;;;;;;5063043;28;20012;-77
2020/12/26 11:25:18;;;;;;;10.77;4.95;;;;;;;;;;5060225;28;20024;-77
2020/12/26 11:27:44;;;;;;;13.05;5.30;;;;;;;;;;5062234;28;20009;-78
2020/12/26 11:30:10;;;;;;;12.43;4.90;;;;;;;;;;5060706;28;20346;-78
2020/12/26 11:32:36;;;;;;;10.05;3.63;;;;;;;;;;5060744;28;20049;-78
2020/12/26 11:35:02;;;;;;;10.40;4.30;;;;;;;;;;5069103;28;20025;-78
2020/12/26 11:37:31;;;;;;;7.60;3.78;;;;;;;;;;5061017;28;20461;-78
2020/12/26 11:39:57;;;;;;;8.27;3.83;;;;;;;;;;5056171;28;20028;-77
2020/12/26 11:42:23;;;;;;;8.45;4.50;;;;;;;;;;5052200;28;20021;-78
2020/12/26 11:44:49;;;;;;;6.30;3.45;;;;;;;;;;5051945;28;20063;-77
2020/12/26 11:47:15;;;;;;;9.20;3.40;;;;;;;;;;5051718;28;20013;-76
2020/12/26 11:49:41;;;;;;;10.77;3.42;;;;;;;;;;5051676;28;20100;-77
2020/12/26 11:52:07;;;;;;;8.40;3.17;;;;;;;;;;5051471;28;20074;-78
2020/12/26 11:54:33;;;;;;;9.60;4.05;;;;;;;;;;5051979;28;20365;-77
2020/12/26 11:56:59;;;;;;;8.85;3.03;;;;;;;;;;5051508;28;20033;-77
2020/12/26 11:59:25;;;;;;;10.60;3.90;;;;;;;;;;5051886;28;20032;-77
2020/12/26 12:01:55;;;;;;;10.13;3.22;;;;;;;;;;5051889;28;20032;-77
2020/12/26 12:04:21;;;;;;;10.25;3.35;;;;;;;;;;5051633;28;20048;-77
2020/12/26 12:06:47;;;;;;;11.98;3.60;;;;;;;;;;5051801;28;20021;-77
2020/12/26 12:09:13;;;;;;;8.10;3.60;;;;;;;;;;5051523;28;20021;-77
2020/12/26 12:11:39;;;;;;;8.82;3.60;;;;;;;;;;5052960;28;20029;-77
2020/12/26 12:14:05;;;;;;;7.97;3.03;;;;;;;;;;5052992;28;20330;-78
2020/12/26 12:16:32;;;;;;;8.70;3.45;;;;;;;;;;5051430;28;20023;-78
2020/12/26 12:18:58;;;;;;;10.40;4.65;;;;;;;;;;5051336;28;20079;-76
2020/12/26 12:21:24;;;;;;;11.70;5.35;;;;;;;;;;5054743;28;20369;-75
2020/12/26 12:23:50;;;;;;;11.38;4.90;;;;;;;;;;5062279;28;20091;-77
2020/12/26 12:26:20;;;;;;;11.45;3.53;;;;;;;;;;5071885;28;20465;-76
2020/12/26 12:28:46;;;;;;;7.70;3.17;;;;;;;;;;5072548;28;20027;-77
2020/12/26 12:31:12;;;;;;;12.63;3.00;;;;;;;;;;5070663;28;20048;-77
2020/12/26 12:33:38;;;;;;;6.55;3.15;;;;;;;;;;5072186;28;20024;-77
2020/12/26 12:36:04;;;;;;;11.38;2.92;;;;;;;;;;5070937;28;20021;-77
2020/12/26 12:38:30;;;;;;;10.48;3.55;;;;;;;;;;5071125;28;20052;-77
2020/12/26 12:40:56;;;;;;;6.80;3.53;;;;;;;;;;5070789;28;20350;-77
2020/12/26 12:43:22;;;;;;;7.15;3.47;;;;;;;;;;5071021;28;20028;-77
2020/12/26 12:45:48;;;;;;;8.98;3.33;;;;;;;;;;5071113;28;20024;-77
2020/12/26 12:48:14;;;;;;;6.43;2.85;;;;;;;;;;5070729;28;20017;-77
2020/12/26 12:50:40;;;;;;;6.85;3.45;;;;;;;;;;5072363;28;20467;-76
2020/12/26 12:53:06;;;;;;;13.43;3.67;;;;;;;;;;5070766;28;20093;-76
2020/12/26 12:55:32;;;;;;;9.18;3.58;;;;;;;;;;5070789;28;20056;-76
2020/12/26 12:57:58;;;;;;;8.98;3.10;;;;;;;;;;5070507;28;20032;-76
2020/12/26 13:00:24;;;;;;;9.57;3.28;;;;;;;;;;5072412;28;20025;-76
2020/12/26 13:02:50;;;;;;;7.30;3.03;;;;;;;;;;5070713;28;20423;-77
2020/12/26 13:05:16;;;;;;;5.65;2.92;;;;;;;;;;5070584;28;20043;-76
2020/12/26 13:07:42;;;;;;;6.32;3.00;;;;;;;;;;5070706;28;20027;-76
2020/12/26 13:10:08;;;;;;;6.25;3.28;;;;;;;;;;5070473;28;20123;-77
2020/12/26 13:12:34;;;;;;;13.43;3.55;;;;;;;;;;5069656;28;20484;-77
2020/12/26 13:15:00;;;;;;;7.32;3.83;;;;;;;;;;5059026;28;20020;-76
2020/12/26 13:17:28;;;;;;;10.35;3.90;;;;;;;;;;5051902;28;20036;-77
2020/12/26 13:19:54;;;;;;;8.35;3.05;;;;;;;;;;5050421;28;20021;-77
2020/12/26 13:22:20;;;;;;;8.93;3.17;;;;;;;;;;5051582;28;20043;-76
2020/12/26 13:24:46;;;;;;;7.80;4.78;;;;;;;;;;5050615;28;20025;-76
2020/12/26 13:27:12;;;;;;;7.60;3.35;;;;;;;;;;5050268;28;20090;-76
2020/12/26 13:29:38;;;;;;;8.25;2.45;;;;;;;;;;5049756;28;20017;-76
2020/12/26 13:32:04;;;;;;;7.60;2.92;;;;;;;;;;5050980;28;20087;-76
2020/12/26 13:34:30;;;;;;;13.15;3.55;;;;;;;;;;5051488;28;20048;-76
2020/12/26 13:36:56;;;;;;;9.55;3.45;;;;;;;;;;5050090;28;20070;-76
2020/12/26 13:39:22;;;;;;;7.93;3.05;;;;;;;;;;5049931;28;20025;-76
2020/12/26 13:41:54;;;;;;;9.38;3.45;;;;;;;;;;5050318;28;20090;-76
2020/12/26 13:44:20;;;;;;;8.05;3.20;;;;;;;;;;5050226;28;20016;-76
2020/12/26 13:46:47;;;;;;;11.85;3.85;;;;;;;;;;5050279;28;20599;-76
2020/12/26 13:49:13;;;;;;;13.13;3.35;;;;;;;;;;5049922;28;20132;-76
2020/12/26 13:51:46;;;;;;;9.88;3.38;;;;;;;;;;5050049;28;20032;-76
2020/12/26 13:54:13;;;;;;;12.40;3.50;;;;;;;;;;5051161;28;20534;-76
2020/12/26 13:56:39;;;;;;;9.10;4.03;;;;;;;;;;5051415;28;20023;-76
2020/12/26 13:59:05;;;;;;;8.38;4.00;;;;;;;;;;5049899;28;20115;-76
2020/12/26 14:01:31;;;;;;;12.15;4.05;;;;;;;;;;5051404;28;20021;-76
2020/12/26 14:03:57;;;;;;;11.68;4.25;;;;;;;;;;5049919;28;20425;-76
2020/12/26 14:06:30;;;;;;;11.07;3.90;;;;;;;;;;5050043;28;20048;-76
2020/12/26 14:08:57;;;;;;;9.10;4.00;;;;;;;;;;5051151;28;20025;-76
2020/12/26 14:11:23;;;;;;;7.68;3.63;;;;;;;;;;5049916;28;20021;-76
2020/12/26 14:13:49;;;;;;;10.82;3.38;;;;;;;;;;5049890;28;20025;-76
2020/12/26 14:16:28;;;;;;;8.98;4.00;;;;;;;;;;5049780;28;20031;-76
2020/12/26 14:18:55;;;;;;;9.30;3.78;;;;;;;;;;5049959;28;20017;-76
2020/12/26 14:21:29;;;;;;;7.82;3.53;;;;;;;;;;5049912;28;20040;-76
2020/12/26 14:23:55;;;;;;;11.50;3.90;;;;;;;;;;5049748;28;20100;-76
2020/12/26 14:26:21;;;;;;;9.27;4.25;;;;;;;;;;5051188;28;20425;-77
2020/12/26 14:28:47;;;;;;;10.52;4.90;;;;;;;;;;5051261;28;20017;-76